sensor_id;sensor_type;location;lat;lon;timestamp;temperature;humidity
70534;SHT31;58088;51.186;17.130;2023-03-04T00:02:02;2.58;76.28
70534;SHT31;58088;51.186;17.130;2023-03-04T00:04:29;2.61;76.27
70534;SHT31;58088;51.186;17.130;2023-03-04T00:06:56;2.65;76.16
70534;SHT31;58088;51.186;17.130;2023-03-04T00:09:22;2.62;76.06
70534;SHT31;58088;51.186;17.130;2023-03-04T00:11:48;2.57;76.07
70534;SHT31;58088;51.186;17.130;2023-03-04T00:14:14;2.57;76.10
70534;SHT31;58088;51.186;17.130;2023-03-04T00:16:41;2.58;76.12
70534;SHT31;58088;51.186;17.130;2023-03-04T00:19:07;2.59;76.14
70534;SHT31;58088;51.186;17.130;2023-03-04T00:21:35;2.64;76.15
70534;SHT31;58088;51.186;17.130;2023-03-04T00:24:01;2.69;76.10
70534;SHT31;58088;51.186;17.130;2023-03-04T00:26:27;2.71;76.00
70534;SHT31;58088;51.186;17.130;2023-03-04T00:28:53;2.71;75.99
70534;SHT31;58088;51.186;17.130;2023-03-04T00:31:20;2.69;75.96
70534;SHT31;58088;51.186;17.130;2023-03-04T00:33:46;2.67;75.92
70534;SHT31;58088;51.186;17.130;2023-03-04T00:36:12;2.70;75.98
70534;SHT31;58088;51.186;17.130;2023-03-04T00:38:38;2.70;75.87
70534;SHT31;58088;51.186;17.130;2023-03-04T00:41:05;2.73;75.89
70534;SHT31;58088;51.186;17.130;2023-03-04T00:43:31;2.74;75.79
70534;SHT31;58088;51.186;17.130;2023-03-04T00:45:57;2.75;75.66
70534;SHT31;58088;51.186;17.130;2023-03-04T00:48:24;2.73;75.63
70534;SHT31;58088;51.186;17.130;2023-03-04T00:50:51;2.73;75.60
70534;SHT31;58088;51.186;17.130;2023-03-04T00:53:18;2.73;75.63
70534;SHT31;58088;51.186;17.130;2023-03-04T00:55:45;2.77;75.60
70534;SHT31;58088;51.186;17.130;2023-03-04T00:58:11;2.82;75.59
70534;SHT31;58088;51.186;17.130;2023-03-04T01:00:38;2.86;75.49
70534;SHT31;58088;51.186;17.130;2023-03-04T01:03:04;2.88;75.42
70534;SHT31;58088;51.186;17.130;2023-03-04T01:05:30;2.86;75.40
70534;SHT31;58088;51.186;17.130;2023-03-04T01:07:59;2.87;75.42
70534;SHT31;58088;51.186;17.130;2023-03-04T01:10:26;2.89;75.40
70534;SHT31;58088;51.186;17.130;2023-03-04T01:12:53;2.87;75.44
70534;SHT31;58088;51.186;17.130;2023-03-04T01:15:19;2.89;75.43
70534;SHT31;58088;51.186;17.130;2023-03-04T01:17:46;2.92;75.40
70534;SHT31;58088;51.186;17.130;2023-03-04T01:20:13;2.94;75.38
70534;SHT31;58088;51.186;17.130;2023-03-04T01:22:41;2.93;75.30
70534;SHT31;58088;51.186;17.130;2023-03-04T01:25:07;2.93;75.33
70534;SHT31;58088;51.186;17.130;2023-03-04T01:27:35;2.97;75.28
70534;SHT31;58088;51.186;17.130;2023-03-04T01:30:01;3.02;75.18
70534;SHT31;58088;51.186;17.130;2023-03-04T01:32:29;3.03;75.09
70534;SHT31;58088;51.186;17.130;2023-03-04T01:34:55;3.00;74.99
70534;SHT31;58088;51.186;17.130;2023-03-04T01:37:24;3.02;74.91
70534;SHT31;58088;51.186;17.130;2023-03-04T01:39:50;3.05;74.82
70534;SHT31;58088;51.186;17.130;2023-03-04T01:42:19;3.06;74.72
70534;SHT31;58088;51.186;17.130;2023-03-04T01:44:49;3.05;74.61
70534;SHT31;58088;51.186;17.130;2023-03-04T01:47:17;3.06;74.51
70534;SHT31;58088;51.186;17.130;2023-03-04T01:49:47;3.10;74.47
70534;SHT31;58088;51.186;17.130;2023-03-04T01:52:21;3.09;74.36
70534;SHT31;58088;51.186;17.130;2023-03-04T01:54:49;3.09;74.25
70534;SHT31;58088;51.186;17.130;2023-03-04T01:57:22;3.11;74.13
70534;SHT31;58088;51.186;17.130;2023-03-04T02:02:45;3.07;73.85
70534;SHT31;58088;51.186;17.130;2023-03-04T02:05:15;3.10;73.74
70534;SHT31;58088;51.186;17.130;2023-03-04T02:07:42;3.13;73.62
70534;SHT31;58088;51.186;17.130;2023-03-04T02:10:09;3.15;73.58
70534;SHT31;58088;51.186;17.130;2023-03-04T02:12:37;3.18;73.52
70534;SHT31;58088;51.186;17.130;2023-03-04T02:15:04;3.21;73.50
70534;SHT31;58088;51.186;17.130;2023-03-04T02:17:32;3.24;73.45
70534;SHT31;58088;51.186;17.130;2023-03-04T02:23:03;3.21;73.24
70534;SHT31;58088;51.186;17.130;2023-03-04T02:28:55;3.20;72.93
70534;SHT31;58088;51.186;17.130;2023-03-04T02:31:25;3.20;72.84
70534;SHT31;58088;51.186;17.130;2023-03-04T02:33:58;3.22;72.80
70534;SHT31;58088;51.186;17.130;2023-03-04T02:36:28;3.25;72.74
70534;SHT31;58088;51.186;17.130;2023-03-04T02:39:00;3.24;72.63
70534;SHT31;58088;51.186;17.130;2023-03-04T02:41:32;3.26;72.57
70534;SHT31;58088;51.186;17.130;2023-03-04T02:43:59;3.28;72.50
70534;SHT31;58088;51.186;17.130;2023-03-04T02:46:26;3.25;72.50
70534;SHT31;58088;51.186;17.130;2023-03-04T02:48:52;3.26;72.50
70534;SHT31;58088;51.186;17.130;2023-03-04T02:51:18;3.26;72.39
70534;SHT31;58088;51.186;17.130;2023-03-04T02:53:44;3.23;72.30
70534;SHT31;58088;51.186;17.130;2023-03-04T02:56:11;3.23;72.23
70534;SHT31;58088;51.186;17.130;2023-03-04T02:58:38;3.26;72.20
70534;SHT31;58088;51.186;17.130;2023-03-04T03:01:07;3.26;72.13
70534;SHT31;58088;51.186;17.130;2023-03-04T03:03:33;3.26;72.03
70534;SHT31;58088;51.186;17.130;2023-03-04T03:05:59;3.24;71.90
70534;SHT31;58088;51.186;17.130;2023-03-04T03:08:26;3.22;71.90
70534;SHT31;58088;51.186;17.130;2023-03-04T03:10:52;3.21;71.88
70534;SHT31;58088;51.186;17.130;2023-03-04T03:13:19;3.21;71.90
70534;SHT31;58088;51.186;17.130;2023-03-04T03:15:45;3.21;71.81
70534;SHT31;58088;51.186;17.130;2023-03-04T03:18:26;3.22;71.66
70534;SHT31;58088;51.186;17.130;2023-03-04T03:20:52;3.21;71.56
70534;SHT31;58088;51.186;17.130;2023-03-04T03:23:19;3.25;71.55
70534;SHT31;58088;51.186;17.130;2023-03-04T03:25:45;3.24;71.50
70534;SHT31;58088;51.186;17.130;2023-03-04T03:28:12;3.21;71.49
70534;SHT31;58088;51.186;17.130;2023-03-04T03:30:38;3.21;71.44
70534;SHT31;58088;51.186;17.130;2023-03-04T03:33:05;3.21;71.49
70534;SHT31;58088;51.186;17.130;2023-03-04T03:35:31;3.22;71.50
70534;SHT31;58088;51.186;17.130;2023-03-04T03:37:58;3.23;71.43
70534;SHT31;58088;51.186;17.130;2023-03-04T03:40:24;3.21;71.37
70534;SHT31;58088;51.186;17.130;2023-03-04T03:42:50;3.22;71.31
70534;SHT31;58088;51.186;17.130;2023-03-04T03:45:16;3.22;71.31
70534;SHT31;58088;51.186;17.130;2023-03-04T03:47:42;3.24;71.28
70534;SHT31;58088;51.186;17.130;2023-03-04T03:50:09;3.23;71.20
70534;SHT31;58088;51.186;17.130;2023-03-04T03:52:36;3.26;71.20
70534;SHT31;58088;51.186;17.130;2023-03-04T03:55:02;3.28;71.12
70534;SHT31;58088;51.186;17.130;2023-03-04T03:57:29;3.28;71.09
70534;SHT31;58088;51.186;17.130;2023-03-04T03:59:55;3.32;71.01
70534;SHT31;58088;51.186;17.130;2023-03-04T04:02:22;3.32;70.94
70534;SHT31;58088;51.186;17.130;2023-03-04T04:04:48;3.27;70.80
70534;SHT31;58088;51.186;17.130;2023-03-04T04:07:15;3.31;70.79
70534;SHT31;58088;51.186;17.130;2023-03-04T04:09:42;3.33;70.71
70534;SHT31;58088;51.186;17.130;2023-03-04T04:12:08;3.34;70.70
70534;SHT31;58088;51.186;17.130;2023-03-04T04:14:34;3.33;70.64
70534;SHT31;58088;51.186;17.130;2023-03-04T04:17:01;3.37;70.60
70534;SHT31;58088;51.186;17.130;2023-03-04T04:19:27;3.39;70.58
70534;SHT31;58088;51.186;17.130;2023-03-04T04:21:53;3.40;70.50
70534;SHT31;58088;51.186;17.130;2023-03-04T04:24:20;3.37;70.43
70534;SHT31;58088;51.186;17.130;2023-03-04T04:26:46;3.35;70.36
70534;SHT31;58088;51.186;17.130;2023-03-04T04:29:13;3.33;70.32
70534;SHT31;58088;51.186;17.130;2023-03-04T04:31:40;3.32;70.28
70534;SHT31;58088;51.186;17.130;2023-03-04T04:34:06;3.33;70.30
70534;SHT31;58088;51.186;17.130;2023-03-04T04:36:32;3.34;70.29
70534;SHT31;58088;51.186;17.130;2023-03-04T04:39:00;3.37;70.26
70534;SHT31;58088;51.186;17.130;2023-03-04T04:41:31;3.37;70.27
70534;SHT31;58088;51.186;17.130;2023-03-04T04:44:03;3.38;70.23
70534;SHT31;58088;51.186;17.130;2023-03-04T04:46:29;3.37;70.23
70534;SHT31;58088;51.186;17.130;2023-03-04T04:48:56;3.41;70.21
70534;SHT31;58088;51.186;17.130;2023-03-04T04:51:22;3.42;70.19
70534;SHT31;58088;51.186;17.130;2023-03-04T04:53:48;3.41;70.08
70534;SHT31;58088;51.186;17.130;2023-03-04T04:56:16;3.42;70.10
70534;SHT31;58088;51.186;17.130;2023-03-04T04:58:46;3.42;70.07
70534;SHT31;58088;51.186;17.130;2023-03-04T05:01:13;3.43;70.06
70534;SHT31;58088;51.186;17.130;2023-03-04T05:03:40;3.44;70.01
70534;SHT31;58088;51.186;17.130;2023-03-04T05:06:07;3.48;70.00
70534;SHT31;58088;51.186;17.130;2023-03-04T05:08:35;3.51;69.99
70534;SHT31;58088;51.186;17.130;2023-03-04T05:11:02;3.49;69.93
70534;SHT31;58088;51.186;17.130;2023-03-04T05:13:29;3.55;69.92
70534;SHT31;58088;51.186;17.130;2023-03-04T05:15:56;3.57;69.86
70534;SHT31;58088;51.186;17.130;2023-03-04T05:18:23;3.55;69.80
70534;SHT31;58088;51.186;17.130;2023-03-04T05:20:51;3.55;69.76
70534;SHT31;58088;51.186;17.130;2023-03-04T05:23:24;3.55;69.64
70534;SHT31;58088;51.186;17.130;2023-03-04T05:25:52;3.53;69.58
70534;SHT31;58088;51.186;17.130;2023-03-04T05:28:19;3.53;69.57
70534;SHT31;58088;51.186;17.130;2023-03-04T05:30:46;3.56;69.53
70534;SHT31;58088;51.186;17.130;2023-03-04T05:33:13;3.56;69.49
70534;SHT31;58088;51.186;17.130;2023-03-04T05:35:42;3.55;69.43
70534;SHT31;58088;51.186;17.130;2023-03-04T05:38:11;3.56;69.50
70534;SHT31;58088;51.186;17.130;2023-03-04T05:40:39;3.56;69.45
70534;SHT31;58088;51.186;17.130;2023-03-04T05:43:07;3.58;69.40
70534;SHT31;58088;51.186;17.130;2023-03-04T05:45:34;3.61;69.43
70534;SHT31;58088;51.186;17.130;2023-03-04T05:48:02;3.63;69.46
70534;SHT31;58088;51.186;17.130;2023-03-04T05:50:30;3.65;69.38
70534;SHT31;58088;51.186;17.130;2023-03-04T05:52:57;3.66;69.33
70534;SHT31;58088;51.186;17.130;2023-03-04T05:55:23;3.68;69.24
70534;SHT31;58088;51.186;17.130;2023-03-04T05:57:52;3.68;69.18
70534;SHT31;58088;51.186;17.130;2023-03-04T06:00:18;3.71;69.10
70534;SHT31;58088;51.186;17.130;2023-03-04T06:02:45;3.77;69.12
70534;SHT31;58088;51.186;17.130;2023-03-04T06:05:12;3.77;69.09
70534;SHT31;58088;51.186;17.130;2023-03-04T06:07:40;3.79;69.08
70534;SHT31;58088;51.186;17.130;2023-03-04T06:10:12;3.78;69.06
70534;SHT31;58088;51.186;17.130;2023-03-04T06:12:41;3.80;69.04
70534;SHT31;58088;51.186;17.130;2023-03-04T06:15:08;3.81;69.01
70534;SHT31;58088;51.186;17.130;2023-03-04T06:17:35;3.83;69.00
70534;SHT31;58088;51.186;17.130;2023-03-04T06:20:03;3.87;69.03
70534;SHT31;58088;51.186;17.130;2023-03-04T06:22:32;3.91;69.01
70534;SHT31;58088;51.186;17.130;2023-03-04T06:24:59;3.90;68.94
70534;SHT31;58088;51.186;17.130;2023-03-04T06:27:26;3.89;68.95
70534;SHT31;58088;51.186;17.130;2023-03-04T06:29:52;3.91;68.92
70534;SHT31;58088;51.186;17.130;2023-03-04T06:32:19;3.96;68.94
70534;SHT31;58088;51.186;17.130;2023-03-04T06:34:45;3.98;68.90
70534;SHT31;58088;51.186;17.130;2023-03-04T06:37:11;3.99;68.84
70534;SHT31;58088;51.186;17.130;2023-03-04T06:39:37;3.99;68.74
70534;SHT31;58088;51.186;17.130;2023-03-04T06:42:04;3.98;68.69
70534;SHT31;58088;51.186;17.130;2023-03-04T06:44:30;3.98;68.55
70534;SHT31;58088;51.186;17.130;2023-03-04T06:46:56;4.05;68.60
70534;SHT31;58088;51.186;17.130;2023-03-04T06:49:22;4.07;68.56
70534;SHT31;58088;51.186;17.130;2023-03-04T06:51:49;4.09;68.59
70534;SHT31;58088;51.186;17.130;2023-03-04T06:54:15;4.11;68.56
70534;SHT31;58088;51.186;17.130;2023-03-04T06:56:41;4.09;68.50
70534;SHT31;58088;51.186;17.130;2023-03-04T06:59:07;4.11;68.50
70534;SHT31;58088;51.186;17.130;2023-03-04T07:01:34;4.10;68.45
70534;SHT31;58088;51.186;17.130;2023-03-04T07:04:01;4.13;68.49
70534;SHT31;58088;51.186;17.130;2023-03-04T07:06:27;4.17;68.49
70534;SHT31;58088;51.186;17.130;2023-03-04T07:08:55;4.17;68.48
70534;SHT31;58088;51.186;17.130;2023-03-04T07:11:22;4.21;68.54
70534;SHT31;58088;51.186;17.130;2023-03-04T07:13:49;4.23;68.60
70534;SHT31;58088;51.186;17.130;2023-03-04T07:16:17;4.22;68.64
70534;SHT31;58088;51.186;17.130;2023-03-04T07:18:46;4.21;68.76
70534;SHT31;58088;51.186;17.130;2023-03-04T07:21:13;4.21;68.93
70534;SHT31;58088;51.186;17.130;2023-03-04T07:23:41;4.26;69.01
70534;SHT31;58088;51.186;17.130;2023-03-04T07:26:07;4.28;69.02
70534;SHT31;58088;51.186;17.130;2023-03-04T07:28:34;4.29;69.10
70534;SHT31;58088;51.186;17.130;2023-03-04T07:31:21;4.29;69.20
70534;SHT31;58088;51.186;17.130;2023-03-04T07:33:58;4.29;69.36
70534;SHT31;58088;51.186;17.130;2023-03-04T07:36:31;4.27;69.46
70534;SHT31;58088;51.186;17.130;2023-03-04T07:39:02;4.24;69.64
70534;SHT31;58088;51.186;17.130;2023-03-04T07:41:32;4.25;69.79
70534;SHT31;58088;51.186;17.130;2023-03-04T07:44:02;4.29;69.91
70534;SHT31;58088;51.186;17.130;2023-03-04T07:46:31;4.38;69.92
70534;SHT31;58088;51.186;17.130;2023-03-04T07:48:58;4.40;69.85
70534;SHT31;58088;51.186;17.130;2023-03-04T07:51:25;4.41;69.89
70534;SHT31;58088;51.186;17.130;2023-03-04T07:53:54;4.43;69.90
70534;SHT31;58088;51.186;17.130;2023-03-04T07:56:25;4.43;69.96
70534;SHT31;58088;51.186;17.130;2023-03-04T07:58:55;4.43;70.01
70534;SHT31;58088;51.186;17.130;2023-03-04T08:01:23;4.43;70.11
70534;SHT31;58088;51.186;17.130;2023-03-04T08:03:56;4.43;70.25
70534;SHT31;58088;51.186;17.130;2023-03-04T08:06:23;4.45;70.38
70534;SHT31;58088;51.186;17.130;2023-03-04T08:08:58;4.43;70.47
70534;SHT31;58088;51.186;17.130;2023-03-04T08:11:31;4.43;70.65
70534;SHT31;58088;51.186;17.130;2023-03-04T08:13:59;4.43;70.80
70534;SHT31;58088;51.186;17.130;2023-03-04T08:16:25;4.46;71.01
70534;SHT31;58088;51.186;17.130;2023-03-04T08:18:53;4.49;71.02
70534;SHT31;58088;51.186;17.130;2023-03-04T08:21:23;4.50;71.13
70534;SHT31;58088;51.186;17.130;2023-03-04T08:23:51;4.53;71.15
70534;SHT31;58088;51.186;17.130;2023-03-04T08:26:19;4.54;71.21
70534;SHT31;58088;51.186;17.130;2023-03-04T08:28:52;4.53;71.31
70534;SHT31;58088;51.186;17.130;2023-03-04T08:31:21;4.53;71.45
70534;SHT31;58088;51.186;17.130;2023-03-04T08:33:48;4.53;71.50
70534;SHT31;58088;51.186;17.130;2023-03-04T08:36:15;4.54;71.58
70534;SHT31;58088;51.186;17.130;2023-03-04T08:38:42;4.56;71.63
70534;SHT31;58088;51.186;17.130;2023-03-04T08:41:08;4.59;71.69
70534;SHT31;58088;51.186;17.130;2023-03-04T08:43:35;4.59;71.76
70534;SHT31;58088;51.186;17.130;2023-03-04T08:46:02;4.59;71.80
70534;SHT31;58088;51.186;17.130;2023-03-04T08:48:30;4.59;71.90
70534;SHT31;58088;51.186;17.130;2023-03-04T08:50:57;4.62;71.89
70534;SHT31;58088;51.186;17.130;2023-03-04T08:53:24;4.65;71.89
70534;SHT31;58088;51.186;17.130;2023-03-04T08:55:50;4.69;71.86
70534;SHT31;58088;51.186;17.130;2023-03-04T08:58:17;4.71;71.79
70534;SHT31;58088;51.186;17.130;2023-03-04T09:00:45;4.73;71.74
70534;SHT31;58088;51.186;17.130;2023-03-04T09:03:14;4.76;71.71
70534;SHT31;58088;51.186;17.130;2023-03-04T09:05:44;4.77;71.71
70534;SHT31;58088;51.186;17.130;2023-03-04T09:08:12;4.77;71.79
70534;SHT31;58088;51.186;17.130;2023-03-04T09:10:40;4.77;71.86
70534;SHT31;58088;51.186;17.130;2023-03-04T09:13:07;4.79;71.88
70534;SHT31;58088;51.186;17.130;2023-03-04T09:15:37;4.85;71.86
70534;SHT31;58088;51.186;17.130;2023-03-04T09:18:09;4.89;71.80
70534;SHT31;58088;51.186;17.130;2023-03-04T09:20:35;4.95;71.80
70534;SHT31;58088;51.186;17.130;2023-03-04T09:23:01;4.98;71.78
70534;SHT31;58088;51.186;17.130;2023-03-04T09:25:28;4.96;71.77
70534;SHT31;58088;51.186;17.130;2023-03-04T09:27:55;4.96;71.75
70534;SHT31;58088;51.186;17.130;2023-03-04T09:30:21;4.99;71.80
70534;SHT31;58088;51.186;17.130;2023-03-04T09:32:48;5.07;71.80
70534;SHT31;58088;51.186;17.130;2023-03-04T09:35:14;5.13;71.67
70534;SHT31;58088;51.186;17.130;2023-03-04T09:37:41;5.16;71.57
70534;SHT31;58088;51.186;17.130;2023-03-04T09:40:08;5.20;71.51
70534;SHT31;58088;51.186;17.130;2023-03-04T09:42:44;5.19;71.59
70534;SHT31;58088;51.186;17.130;2023-03-04T09:45:21;5.17;71.68
70534;SHT31;58088;51.186;17.130;2023-03-04T09:47:59;5.14;71.95
70534;SHT31;58088;51.186;17.130;2023-03-04T09:50:26;5.09;72.26
70534;SHT31;58088;51.186;17.130;2023-03-04T09:55:39;5.11;72.82
70534;SHT31;58088;51.186;17.130;2023-03-04T10:07:07;5.14;73.78
70534;SHT31;58088;51.186;17.130;2023-03-04T10:09:53;5.16;73.99
70534;SHT31;58088;51.186;17.130;2023-03-04T10:12:28;5.18;74.14
70534;SHT31;58088;51.186;17.130;2023-03-04T10:15:21;5.24;74.35
70534;SHT31;58088;51.186;17.130;2023-03-04T10:18:26;5.30;74.49
70534;SHT31;58088;51.186;17.130;2023-03-04T10:23:46;5.36;74.60
70534;SHT31;58088;51.186;17.130;2023-03-04T10:26:15;5.42;74.54
70534;SHT31;58088;51.186;17.130;2023-03-04T10:28:46;5.43;74.49
70534;SHT31;58088;51.186;17.130;2023-03-04T10:34:04;5.47;74.53
70534;SHT31;58088;51.186;17.130;2023-03-04T10:39:11;5.53;74.48
70534;SHT31;58088;51.186;17.130;2023-03-04T10:42:03;5.55;74.40
70534;SHT31;58088;51.186;17.130;2023-03-04T10:47:25;5.73;74.22
70534;SHT31;58088;51.186;17.130;2023-03-04T10:49:56;5.79;74.07
70534;SHT31;58088;51.186;17.130;2023-03-04T10:54:58;5.73;73.89
70534;SHT31;58088;51.186;17.130;2023-03-04T10:57:32;5.75;73.80
70534;SHT31;58088;51.186;17.130;2023-03-04T11:08:57;5.90;73.47
70534;SHT31;58088;51.186;17.130;2023-03-04T11:11:26;5.92;73.38
70534;SHT31;58088;51.186;17.130;2023-03-04T11:14:27;5.95;73.30
70534;SHT31;58088;51.186;17.130;2023-03-04T11:17:18;5.98;73.08
70534;SHT31;58088;51.186;17.130;2023-03-04T11:19:47;5.98;72.92
70534;SHT31;58088;51.186;17.130;2023-03-04T11:22:22;6.08;72.89
70534;SHT31;58088;51.186;17.130;2023-03-04T11:25:03;6.21;72.73
70534;SHT31;58088;51.186;17.130;2023-03-04T11:27:46;6.31;72.50
70534;SHT31;58088;51.186;17.130;2023-03-04T11:36:20;6.32;72.99
70534;SHT31;58088;51.186;17.130;2023-03-04T11:39:17;6.36;73.09
70534;SHT31;58088;51.186;17.130;2023-03-04T11:41:57;6.34;73.07
70534;SHT31;58088;51.186;17.130;2023-03-04T11:44:36;6.37;73.11
70534;SHT31;58088;51.186;17.130;2023-03-04T11:50:22;6.83;72.85
70534;SHT31;58088;51.186;17.130;2023-03-04T11:53:03;6.81;72.21
70534;SHT31;58088;51.186;17.130;2023-03-04T12:26:23;7.24;70.32
70534;SHT31;58088;51.186;17.130;2023-03-04T12:29:12;7.22;70.10
70534;SHT31;58088;51.186;17.130;2023-03-04T12:41:29;7.57;69.78
70534;SHT31;58088;51.186;17.130;2023-03-04T12:44:07;7.65;69.38
70534;SHT31;58088;51.186;17.130;2023-03-04T12:49:34;7.75;69.26
70534;SHT31;58088;51.186;17.130;2023-03-04T12:55:49;7.83;69.34
70534;SHT31;58088;51.186;17.130;2023-03-04T12:58:22;7.83;69.30
70534;SHT31;58088;51.186;17.130;2023-03-04T13:01:14;7.81;69.26
70534;SHT31;58088;51.186;17.130;2023-03-04T13:09:40;7.76;68.56
70534;SHT31;58088;51.186;17.130;2023-03-04T13:12:45;7.73;68.73
70534;SHT31;58088;51.186;17.130;2023-03-04T13:17:56;7.46;69.94
70534;SHT31;58088;51.186;17.130;2023-03-04T13:25:31;7.27;70.76
70534;SHT31;58088;51.186;17.130;2023-03-04T13:28:36;7.28;70.96
70534;SHT31;58088;51.186;17.130;2023-03-04T13:36:02;7.43;71.00
70534;SHT31;58088;51.186;17.130;2023-03-04T13:41:53;7.52;70.95
70534;SHT31;58088;51.186;17.130;2023-03-04T13:47:16;7.77;70.39
70534;SHT31;58088;51.186;17.130;2023-03-04T13:49:47;7.75;70.01
70534;SHT31;58088;51.186;17.130;2023-03-04T13:58:17;7.71;69.87
70534;SHT31;58088;51.186;17.130;2023-03-04T14:00:54;7.67;69.70
70534;SHT31;58088;51.186;17.130;2023-03-04T14:03:22;7.66;69.71
70534;SHT31;58088;51.186;17.130;2023-03-04T14:06:08;7.64;69.71
70534;SHT31;58088;51.186;17.130;2023-03-04T14:08:35;7.63;69.68
70534;SHT31;58088;51.186;17.130;2023-03-04T14:11:02;7.63;69.57
70534;SHT31;58088;51.186;17.130;2023-03-04T14:13:28;7.60;69.54
70534;SHT31;58088;51.186;17.130;2023-03-04T14:15:55;7.62;69.61
70534;SHT31;58088;51.186;17.130;2023-03-04T14:18:24;7.61;69.61
70534;SHT31;58088;51.186;17.130;2023-03-04T14:20:52;7.62;69.62
70534;SHT31;58088;51.186;17.130;2023-03-04T14:23:30;7.64;69.70
70534;SHT31;58088;51.186;17.130;2023-03-04T14:26:09;7.59;69.65
70534;SHT31;58088;51.186;17.130;2023-03-04T14:28:49;7.62;69.67
70534;SHT31;58088;51.186;17.130;2023-03-04T14:31:23;7.61;69.66
70534;SHT31;58088;51.186;17.130;2023-03-04T14:33:55;7.62;69.61
70534;SHT31;58088;51.186;17.130;2023-03-04T14:36:29;7.64;69.60
70534;SHT31;58088;51.186;17.130;2023-03-04T14:39:02;7.61;69.50
70534;SHT31;58088;51.186;17.130;2023-03-04T14:41:35;7.56;69.59
70534;SHT31;58088;51.186;17.130;2023-03-04T14:44:11;7.55;69.92
70534;SHT31;58088;51.186;17.130;2023-03-04T14:47:11;7.52;70.37
70534;SHT31;58088;51.186;17.130;2023-03-04T14:49:46;7.38;70.63
70534;SHT31;58088;51.186;17.130;2023-03-04T14:55:21;7.14;70.69
70534;SHT31;58088;51.186;17.130;2023-03-04T14:58:05;7.06;70.92
70534;SHT31;58088;51.186;17.130;2023-03-04T15:00:35;7.01;71.22
70534;SHT31;58088;51.186;17.130;2023-03-04T15:05:55;6.98;71.72
70534;SHT31;58088;51.186;17.130;2023-03-04T15:08:34;6.99;71.81
70534;SHT31;58088;51.186;17.130;2023-03-04T15:11:04;6.99;71.83
70534;SHT31;58088;51.186;17.130;2023-03-04T15:13:40;6.99;71.89
70534;SHT31;58088;51.186;17.130;2023-03-04T15:16:18;7.02;71.84
70534;SHT31;58088;51.186;17.130;2023-03-04T15:19:01;7.02;71.81
70534;SHT31;58088;51.186;17.130;2023-03-04T15:21:49;7.00;71.81
70534;SHT31;58088;51.186;17.130;2023-03-04T15:24:15;6.99;71.80
70534;SHT31;58088;51.186;17.130;2023-03-04T15:26:42;7.03;71.81
70534;SHT31;58088;51.186;17.130;2023-03-04T15:29:14;7.05;71.69
70534;SHT31;58088;51.186;17.130;2023-03-04T15:31:44;7.05;71.55
70534;SHT31;58088;51.186;17.130;2023-03-04T15:34:15;7.02;71.50
70534;SHT31;58088;51.186;17.130;2023-03-04T15:36:44;6.99;71.40
70534;SHT31;58088;51.186;17.130;2023-03-04T15:39:15;6.99;71.40
70534;SHT31;58088;51.186;17.130;2023-03-04T15:41:44;6.98;71.32
70534;SHT31;58088;51.186;17.130;2023-03-04T15:44:15;6.98;71.27
70534;SHT31;58088;51.186;17.130;2023-03-04T15:46:41;6.98;71.24
70534;SHT31;58088;51.186;17.130;2023-03-04T15:49:08;6.99;71.20
70534;SHT31;58088;51.186;17.130;2023-03-04T15:51:34;7.00;71.18
70534;SHT31;58088;51.186;17.130;2023-03-04T15:54:01;6.99;71.10
70534;SHT31;58088;51.186;17.130;2023-03-04T15:56:31;7.02;70.99
70534;SHT31;58088;51.186;17.130;2023-03-04T15:59:08;7.02;70.77
70534;SHT31;58088;51.186;17.130;2023-03-04T16:01:37;7.02;70.68
70534;SHT31;58088;51.186;17.130;2023-03-04T16:04:05;7.03;70.59
70534;SHT31;58088;51.186;17.130;2023-03-04T16:06:36;7.04;70.44
70534;SHT31;58088;51.186;17.130;2023-03-04T16:09:03;7.04;70.30
70534;SHT31;58088;51.186;17.130;2023-03-04T16:11:31;7.02;70.09
70534;SHT31;58088;51.186;17.130;2023-03-04T16:14:08;7.00;69.89
70534;SHT31;58088;51.186;17.130;2023-03-04T16:16:36;6.99;69.71
70534;SHT31;58088;51.186;17.130;2023-03-04T16:19:03;7.03;69.65
70534;SHT31;58088;51.186;17.130;2023-03-04T16:21:30;7.02;69.53
70534;SHT31;58088;51.186;17.130;2023-03-04T16:23:57;7.03;69.48
70534;SHT31;58088;51.186;17.130;2023-03-04T16:26:25;7.01;69.35
70534;SHT31;58088;51.186;17.130;2023-03-04T16:28:54;7.02;69.24
70534;SHT31;58088;51.186;17.130;2023-03-04T16:31:21;7.04;69.13
70534;SHT31;58088;51.186;17.130;2023-03-04T16:33:48;7.03;68.93
70534;SHT31;58088;51.186;17.130;2023-03-04T16:38:48;7.01;68.65
70534;SHT31;58088;51.186;17.130;2023-03-04T16:41:16;6.99;68.48
70534;SHT31;58088;51.186;17.130;2023-03-04T16:43:49;6.99;68.42
70534;SHT31;58088;51.186;17.130;2023-03-04T16:46:16;6.99;68.47
70534;SHT31;58088;51.186;17.130;2023-03-04T16:48:42;7.00;68.48
70534;SHT31;58088;51.186;17.130;2023-03-04T16:51:18;7.00;68.52
70534;SHT31;58088;51.186;17.130;2023-03-04T16:53:49;7.01;68.83
70534;SHT31;58088;51.186;17.130;2023-03-04T16:56:21;7.04;69.09
70534;SHT31;58088;51.186;17.130;2023-03-04T16:58:48;6.97;68.88
70534;SHT31;58088;51.186;17.130;2023-03-04T17:01:16;6.82;68.83
70534;SHT31;58088;51.186;17.130;2023-03-04T17:03:48;6.76;69.00
70534;SHT31;58088;51.186;17.130;2023-03-04T17:06:15;6.72;69.15
70534;SHT31;58088;51.186;17.130;2023-03-04T17:08:42;6.74;69.38
70534;SHT31;58088;51.186;17.130;2023-03-04T17:11:19;6.74;69.40
70534;SHT31;58088;51.186;17.130;2023-03-04T17:13:48;6.71;69.40
70534;SHT31;58088;51.186;17.130;2023-03-04T17:16:17;6.70;69.50
70534;SHT31;58088;51.186;17.130;2023-03-04T17:18:44;6.69;69.55
70534;SHT31;58088;51.186;17.130;2023-03-04T17:21:11;6.71;69.60
70534;SHT31;58088;51.186;17.130;2023-03-04T17:23:42;6.70;69.61
70534;SHT31;58088;51.186;17.130;2023-03-04T17:26:09;6.69;69.69
70534;SHT31;58088;51.186;17.130;2023-03-04T17:28:36;6.68;69.70
70534;SHT31;58088;51.186;17.130;2023-03-04T17:31:11;6.66;69.76
70534;SHT31;58088;51.186;17.130;2023-03-04T17:33:42;6.63;69.84
70534;SHT31;58088;51.186;17.130;2023-03-04T17:36:10;6.63;69.90
70534;SHT31;58088;51.186;17.130;2023-03-04T17:38:39;6.64;69.88
70534;SHT31;58088;51.186;17.130;2023-03-04T17:41:09;6.63;69.88
70534;SHT31;58088;51.186;17.130;2023-03-04T17:43:45;6.64;69.90
70534;SHT31;58088;51.186;17.130;2023-03-04T17:46:16;6.64;69.82
70534;SHT31;58088;51.186;17.130;2023-03-04T17:48:46;6.66;69.81
70534;SHT31;58088;51.186;17.130;2023-03-04T17:51:14;6.66;69.80
70534;SHT31;58088;51.186;17.130;2023-03-04T17:53:41;6.65;69.80
70534;SHT31;58088;51.186;17.130;2023-03-04T17:56:08;6.65;69.80
70534;SHT31;58088;51.186;17.130;2023-03-04T17:58:38;6.63;69.80
70534;SHT31;58088;51.186;17.130;2023-03-04T18:01:17;6.62;69.78
70534;SHT31;58088;51.186;17.130;2023-03-04T18:03:47;6.61;69.75
70534;SHT31;58088;51.186;17.130;2023-03-04T18:06:15;6.61;69.74